Time;durP1;ratioP1;P1;durP2;ratioP2;P2;SDS_P1;SDS_P2;PMS_P1;PMS_P2;Temp;Humidity;BMP_temperature;BMP_pressure;BME280_temperature;BME280_humidity;BME280_pressure;Samples;Min_cycle;Max_cycle;Signal;HPM_P1;HPM_P2
2023/04/28 00:02:01;;;;;;;13.47;6.23;;;5.50;99.90;;;;;;5048695;28;20104;-75
2023/04/28 00:04:27;;;;;;;12.60;6.20;;;5.50;99.90;;;;;;5045900;28;20037;-75
2023/04/28 00:06:52;;;;;;;11.90;5.78;;;5.40;99.90;;;;;;5050781;28;20052;-74
2023/04/28 00:09:18;;;;;;;11.93;6.28;;;5.40;99.90;;;;;;5069179;28;20036;-74
2023/04/28 00:11:47;;;;;;;12.38;5.78;;;5.40;99.90;;;;;;5045436;28;20431;-75
2023/04/28 00:14:13;;;;;;;14.05;6.40;;;5.30;99.90;;;;;;5062783;28;20386;-75
2023/04/28 00:16:38;;;;;;;12.27;6.68;;;5.50;99.90;;;;;;5053255;28;20040;-74
2023/04/28 00:19:04;;;;;;;13.15;6.78;;;5.50;99.90;;;;;;5069333;28;20047;-74
2023/04/28 00:21:30;;;;;;;11.45;6.65;;;5.20;99.90;;;;;;5068251;28;20059;-75
2023/04/28 00:23:56;;;;;;;11.80;6.28;;;5.20;99.90;;;;;;5034950;28;20119;-74
2023/04/28 00:26:22;;;;;;;15.45;6.97;;;5.20;99.90;;;;;;5070297;28;20173;-74
2023/04/28 00:28:48;;;;;;;12.07;6.65;;;5.60;99.90;;;;;;5062635;28;20097;-75
2023/04/28 00:31:17;;;;;;;12.60;6.70;;;5.20;99.90;;;;;;5051602;28;20145;-74
2023/04/28 00:33:43;;;;;;;11.95;6.85;;;5.10;99.90;;;;;;5053627;28;20524;-74
2023/04/28 00:36:09;;;;;;;11.45;6.18;;;5.10;99.90;;;;;;5070050;28;20036;-74
2023/04/28 00:38:36;;;;;;;11.50;6.25;;;5.00;99.90;;;;;;5047502;28;20052;-75
2023/04/28 00:41:01;;;;;;;12.48;6.55;;;5.30;99.90;;;;;;5069852;28;20039;-74
2023/04/28 00:43:27;;;;;;;13.10;6.78;;;5.00;99.90;;;;;;5052256;28;20497;-74
2023/04/28 00:45:53;;;;;;;14.45;7.10;;;4.90;99.90;;;;;;5052893;28;20097;-74
2023/04/28 00:48:19;;;;;;;12.07;6.57;;;5.00;99.90;;;;;;5074389;28;20481;-74
2023/04/28 00:50:46;;;;;;;13.88;6.70;;;5.00;99.90;;;;;;5049268;28;20089;-74
2023/04/28 00:53:12;;;;;;;12.20;6.50;;;5.00;99.90;;;;;;5053496;28;20044;-74
2023/04/28 00:55:39;;;;;;;12.63;6.47;;;5.20;99.90;;;;;;5058666;28;20040;-74
2023/04/28 00:58:06;;;;;;;12.88;6.78;;;4.90;99.90;;;;;;5063927;28;20052;-74
2023/04/28 01:00:32;;;;;;;11.32;6.25;;;4.90;99.90;;;;;;5047544;28;20048;-75
2023/04/28 01:02:58;;;;;;;11.90;6.40;;;4.90;99.90;;;;;;5070753;28;20036;-74
2023/04/28 01:05:28;;;;;;;11.70;6.60;;;4.90;99.90;;;;;;5047409;28;20035;-75
2023/04/28 01:07:53;;;;;;;12.52;6.47;;;5.20;99.90;;;;;;5054571;28;20066;-75
2023/04/28 01:10:20;;;;;;;11.13;6.18;;;4.90;99.90;;;;;;5037512;28;20036;-75
2023/04/28 01:12:45;;;;;;;13.40;6.72;;;4.80;99.90;;;;;;5057904;28;20101;-75
2023/04/28 01:15:19;;;;;;;12.50;6.72;;;4.90;99.90;;;;;;5042682;28;20397;-74
2023/04/28 01:17:47;;;;;;;12.43;6.82;;;5.10;99.90;;;;;;5068946;28;20040;-74
2023/04/28 01:20:14;;;;;;;12.73;6.38;;;4.80;99.90;;;;;;5054485;28;20049;-74
2023/04/28 01:22:40;;;;;;;13.15;6.30;;;4.80;99.90;;;;;;5053718;28;20375;-75
2023/04/28 01:25:06;;;;;;;14.32;7.20;;;4.80;99.90;;;;;;5058305;28;20119;-74
2023/04/28 01:27:32;;;;;;;11.82;6.18;;;4.80;99.90;;;;;;5050246;28;20052;-74
2023/04/28 01:29:57;;;;;;;13.15;7.15;;;4.80;99.90;;;;;;5048666;28;20045;-75
2023/04/28 01:32:23;;;;;;;14.20;6.95;;;5.00;99.90;;;;;;5066954;28;20037;-75
2023/04/28 01:34:49;;;;;;;12.73;6.85;;;4.80;99.90;;;;;;5050198;28;20118;-74
2023/04/28 01:37:14;;;;;;;13.48;7.07;;;4.80;99.90;;;;;;5058467;28;20041;-75
2023/04/28 01:39:40;;;;;;;12.63;6.95;;;4.80;99.90;;;;;;5053044;28;20169;-74
2023/04/28 01:42:06;;;;;;;14.45;7.20;;;4.80;99.90;;;;;;5037065;28;20037;-73
2023/04/28 01:44:32;;;;;;;13.40;6.85;;;4.90;99.90;;;;;;5041855;28;20047;-74
2023/04/28 01:46:58;;;;;;;13.77;6.75;;;4.90;99.90;;;;;;5043626;28;20028;-74
2023/04/28 01:49:23;;;;;;;13.90;7.22;;;4.90;99.90;;;;;;5080718;28;20643;-74
2023/04/28 01:51:49;;;;;;;14.38;7.25;;;4.90;99.90;;;;;;5049306;28;20102;-75
2023/04/28 01:54:15;;;;;;;13.23;6.95;;;5.10;99.90;;;;;;5085613;28;20041;-74
2023/04/28 01:56:40;;;;;;;14.43;6.95;;;4.90;99.90;;;;;;5059281;28;20041;-74
2023/04/28 01:59:06;;;;;;;12.82;6.88;;;5.20;99.90;;;;;;5045654;28;20037;-75
2023/04/28 02:01:32;;;;;;;14.70;7.65;;;5.00;99.90;;;;;;5064196;28;20082;-74
2023/04/28 02:03:57;;;;;;;15.40;7.53;;;4.90;99.90;;;;;;5062825;28;20044;-74
2023/04/28 02:06:23;;;;;;;14.80;8.57;;;5.00;99.90;;;;;;5041348;28;20033;-75
2023/04/28 02:08:49;;;;;;;14.70;7.88;;;5.00;99.90;;;;;;5056062;28;20570;-75
2023/04/28 02:11:15;;;;;;;14.90;7.95;;;5.00;99.90;;;;;;5064144;28;20119;-74
2023/04/28 02:13:41;;;;;;;16.35;8.55;;;5.00;99.90;;;;;;5065089;28;20509;-74
2023/04/28 02:16:06;;;;;;;15.93;7.63;;;5.10;99.90;;;;;;5048762;28;20490;-74
2023/04/28 02:18:34;;;;;;;15.60;8.80;;;5.10;99.90;;;;;;5055452;28;20131;-75
2023/04/28 02:21:11;;;;;;;16.52;8.88;;;5.10;99.90;;;;;;5040045;28;20114;-75
2023/04/28 02:23:37;;;;;;;15.63;8.93;;;5.10;99.90;;;;;;5065760;28;20616;-74
2023/04/28 02:26:03;;;;;;;16.27;9.05;;;5.20;99.90;;;;;;5064986;28;20525;-74
2023/04/28 02:28:29;;;;;;;19.17;9.48;;;5.20;99.90;;;;;;5061822;28;20029;-74
2023/04/28 02:31:08;;;;;;;18.33;10.07;;;5.20;99.90;;;;;;5058647;28;20043;-74
2023/04/28 02:33:35;;;;;;;18.65;10.10;;;5.20;99.90;;;;;;5047291;28;20548;-76
2023/04/28 02:36:02;;;;;;;16.88;9.52;;;5.30;99.90;;;;;;5029937;28;20037;-75
2023/04/28 02:38:28;;;;;;;18.67;10.30;;;5.30;99.90;;;;;;5032174;28;20479;-74
2023/04/28 02:41:03;;;;;;;17.25;10.13;;;5.30;99.90;;;;;;5056317;28;20032;-73
2023/04/28 02:43:33;;;;;;;19.85;10.30;;;5.30;99.90;;;;;;5048504;28;20068;-74
2023/04/28 02:45:59;;;;;;;17.30;10.27;;;5.40;99.90;;;;;;5055437;28;20048;-74
2023/04/28 02:48:25;;;;;;;20.88;10.15;;;5.40;99.90;;;;;;5069084;28;20033;-74
2023/04/28 02:50:51;;;;;;;17.15;11.00;;;5.40;99.90;;;;;;5056792;28;20045;-75
2023/04/28 02:53:21;;;;;;;17.65;10.38;;;5.40;99.90;;;;;;5061551;28;20047;-74
2023/04/28 02:55:47;;;;;;;19.38;11.15;;;5.60;99.90;;;;;;5058799;28;20271;-74
2023/04/28 02:58:13;;;;;;;21.77;11.40;;;5.50;99.90;;;;;;5045965;28;20051;-75
2023/04/28 03:00:39;;;;;;;19.60;10.65;;;5.60;99.90;;;;;;5055764;28;20036;-75
2023/04/28 03:03:04;;;;;;;20.23;11.70;;;5.50;99.90;;;;;;5065376;28;20078;-75
2023/04/28 03:05:30;;;;;;;19.27;10.60;;;5.50;99.90;;;;;;5040980;28;20145;-74
2023/04/28 03:07:56;;;;;;;21.02;11.43;;;5.40;99.90;;;;;;5063517;28;20044;-75
2023/04/28 03:10:22;;;;;;;23.23;12.77;;;5.50;99.90;;;;;;5061314;28;20047;-75
2023/04/28 03:12:47;;;;;;;22.42;12.45;;;5.50;99.90;;;;;;5062096;28;20171;-75
2023/04/28 03:15:13;;;;;;;20.33;12.35;;;5.80;99.90;;;;;;5060420;28;20120;-75
2023/04/28 03:17:40;;;;;;;21.38;12.27;;;5.50;99.90;;;;;;5056321;28;20067;-76
2023/04/28 03:20:07;;;;;;;21.90;13.07;;;5.50;99.90;;;;;;5050552;28;20056;-75
2023/04/28 03:22:34;;;;;;;25.92;12.95;;;5.50;99.90;;;;;;5057783;28;20116;-74
2023/04/28 03:25:00;;;;;;;22.05;12.57;;;5.60;99.90;;;;;;5062637;28;20494;-75
2023/04/28 03:27:27;;;;;;;23.30;13.40;;;5.60;99.90;;;;;;5070299;28;20039;-75
2023/04/28 03:29:52;;;;;;;20.80;12.15;;;5.60;99.90;;;;;;5063537;28;20112;-75
2023/04/28 03:32:18;;;;;;;22.38;13.15;;;5.60;99.90;;;;;;5065516;28;20154;-75
2023/04/28 03:34:44;;;;;;;21.70;12.77;;;6.10;99.90;;;;;;5078611;28;20126;-75
2023/04/28 03:37:10;;;;;;;24.33;13.13;;;5.60;99.90;;;;;;5063145;28;20040;-75
2023/04/28 03:39:36;;;;;;;23.35;12.85;;;5.60;99.90;;;;;;5054092;28;20748;-75
2023/04/28 03:42:02;;;;;;;23.20;12.05;;;5.60;99.90;;;;;;5060739;28;20094;-75
2023/04/28 03:44:27;;;;;;;22.90;12.85;;;5.60;99.90;;;;;;5058018;28;20036;-73
2023/04/28 03:46:53;;;;;;;21.20;12.32;;;5.60;99.90;;;;;;5047629;28;20156;-74
2023/04/28 03:49:19;;;;;;;21.25;12.32;;;5.60;99.90;;;;;;5069039;28;20044;-74
2023/04/28 03:51:45;;;;;;;20.88;11.93;;;5.60;99.90;;;;;;5069033;28;20043;-74
2023/04/28 03:54:11;;;;;;;26.17;12.98;;;5.50;99.90;;;;;;5048357;28;20376;-74
2023/04/28 03:56:36;;;;;;;21.40;12.55;;;5.50;99.90;;;;;;5058475;28;20262;-74
2023/04/28 03:59:02;;;;;;;21.88;12.20;;;5.50;99.90;;;;;;5056217;28;20036;-74
2023/04/28 04:01:28;;;;;;;20.92;12.07;;;5.50;99.90;;;;;;5052636;28;21031;-74
2023/04/28 04:03:54;;;;;;;21.40;11.07;;;5.50;99.90;;;;;;5064410;28;20042;-74
2023/04/28 04:06:20;;;;;;;22.75;12.25;;;5.50;99.90;;;;;;5050098;28;20528;-75
2023/04/28 04:08:46;;;;;;;21.63;12.57;;;5.50;99.90;;;;;;5056993;28;20050;-75
2023/04/28 04:11:12;;;;;;;20.42;11.68;;;5.60;99.90;;;;;;5066291;28;20400;-75
2023/04/28 04:13:38;;;;;;;20.67;12.32;;;5.50;99.90;;;;;;5062087;28;20036;-75
2023/04/28 04:16:04;;;;;;;21.25;11.77;;;5.60;99.90;;;;;;5062257;28;20274;-75
2023/04/28 04:18:29;;;;;;;20.92;11.63;;;5.50;99.90;;;;;;5045339;28;20159;-75
2023/04/28 04:20:56;;;;;;;19.42;11.80;;;5.50;99.90;;;;;;5060575;28;20048;-75
2023/04/28 04:23:22;;;;;;;21.15;11.77;;;5.90;99.90;;;;;;5063337;28;20064;-75
2023/04/28 04:25:48;;;;;;;21.88;11.88;;;5.50;99.90;;;;;;5086554;28;20186;-75
2023/04/28 04:28:14;;;;;;;24.30;12.25;;;5.50;99.90;;;;;;5054322;28;20116;-75
2023/04/28 04:30:40;;;;;;;22.25;12.45;;;5.50;99.90;;;;;;5055084;28;20574;-75
2023/04/28 04:33:06;;;;;;;22.77;12.63;;;5.50;99.90;;;;;;5063016;28;20036;-76
2023/04/28 04:35:31;;;;;;;20.02;11.95;;;5.50;99.90;;;;;;5042927;28;20051;-75
2023/04/28 04:37:57;;;;;;;21.30;11.68;;;5.60;99.90;;;;;;5068524;28;20093;-75
2023/04/28 04:40:23;;;;;;;23.35;12.40;;;4.40;99.90;;;;;;5033376;28;20465;-76
2023/04/28 04:42:49;;;;;;;22.45;12.30;;;5.60;99.90;;;;;;5039043;28;20043;-76
2023/04/28 04:45:15;;;;;;;20.50;12.15;;;5.60;99.90;;;;;;5050320;28;20485;-75
2023/04/28 04:47:40;;;;;;;20.00;11.75;;;5.60;99.90;;;;;;5070498;28;20054;-75
2023/04/28 04:50:07;;;;;;;22.10;11.85;;;5.60;99.90;;;;;;5056754;28;20036;-75
2023/04/28 04:52:32;;;;;;;20.17;11.75;;;5.60;99.90;;;;;;5071275;28;20068;-75
2023/04/28 04:54:59;;;;;;;21.15;12.07;;;5.60;99.90;;;;;;5054555;28;20078;-75
2023/04/28 04:57:25;;;;;;;22.27;12.10;;;5.80;99.90;;;;;;5033306;28;20086;-75
2023/04/28 04:59:50;;;;;;;20.95;11.68;;;5.70;99.90;;;;;;5068662;28;20036;-75
2023/04/28 05:02:16;;;;;;;21.02;12.40;;;5.70;99.90;;;;;;5064106;28;20168;-76
2023/04/28 05:04:42;;;;;;;19.40;11.13;;;6.10;99.90;;;;;;5073307;28;20074;-76
2023/04/28 05:07:08;;;;;;;19.45;11.43;;;5.70;99.90;;;;;;5058012;28;20056;-75
2023/04/28 05:09:33;;;;;;;19.42;11.65;;;5.80;99.90;;;;;;5066114;28;20131;-76
2023/04/28 05:11:59;;;;;;;21.02;11.38;;;6.10;99.90;;;;;;5034987;28;20472;-76
2023/04/28 05:14:25;;;;;;;17.90;10.45;;;5.70;99.90;;;;;;5036827;28;20044;-75
2023/04/28 05:16:51;;;;;;;19.48;10.75;;;5.70;99.90;;;;;;5058269;28;20698;-75
2023/04/28 05:19:17;;;;;;;19.98;11.40;;;5.80;99.90;;;;;;5068000;28;20044;-76
2023/04/28 05:21:43;;;;;;;19.80;10.60;;;6.00;99.90;;;;;;5034508;28;20049;-76
2023/04/28 05:24:08;;;;;;;19.17;11.07;;;5.80;99.90;;;;;;5030726;28;20041;-75
2023/04/28 05:26:35;;;;;;;18.75;10.80;;;5.80;99.90;;;;;;5043817;28;20044;-76
2023/04/28 05:29:01;;;;;;;19.30;10.57;;;5.80;99.90;;;;;;5034141;28;20077;-75
2023/04/28 05:31:26;;;;;;;19.05;11.00;;;5.90;99.90;;;;;;5011678;28;20084;-76
2023/04/28 05:33:52;;;;;;;19.65;10.70;;;5.90;99.90;;;;;;5020303;28;20124;-75
2023/04/28 05:36:18;;;;;;;18.40;10.30;;;5.90;99.90;;;;;;5025841;28;20095;-75
2023/04/28 05:38:43;;;;;;;19.30;10.23;;;5.90;99.90;;;;;;5017093;28;20033;-75
2023/04/28 05:41:09;;;;;;;18.67;10.27;;;6.00;99.90;;;;;;5033073;28;20037;-75
2023/04/28 05:43:36;;;;;;;18.17;9.85;;;6.00;99.90;;;;;;5021923;28;20044;-76
2023/04/28 05:46:02;;;;;;;20.05;10.73;;;6.00;99.90;;;;;;5051283;28;20121;-75
2023/04/28 05:48:27;;;;;;;19.05;10.30;;;6.10;99.90;;;;;;5039021;28;20140;-75
2023/04/28 05:50:53;;;;;;;17.33;9.63;;;6.10;99.90;;;;;;5010530;28;20068;-75
2023/04/28 05:53:19;;;;;;;17.83;9.75;;;6.20;99.90;;;;;;5029199;28;20037;-75
2023/04/28 05:55:45;;;;;;;19.33;9.98;;;6.30;99.90;;;;;;5042997;28;20106;-75
2023/04/28 05:58:10;;;;;;;21.33;10.02;;;6.20;99.90;;;;;;5005200;28;20038;-75
2023/04/28 06:00:36;;;;;;;16.67;9.90;;;6.70;99.90;;;;;;5032190;28;20053;-73
2023/04/28 06:03:02;;;;;;;18.05;9.68;;;6.30;99.90;;;;;;5036121;28;20040;-73
2023/04/28 06:05:28;;;;;;;16.83;10.07;;;6.40;99.90;;;;;;5031534;28;20106;-73
2023/04/28 06:07:54;;;;;;;18.23;8.68;;;6.40;99.90;;;;;;5037818;28;20448;-73
2023/04/28 06:10:22;;;;;;;17.70;10.20;;;6.40;99.90;;;;;;5019931;28;20049;-72
2023/04/28 06:12:47;;;;;;;14.93;9.00;;;6.40;99.90;;;;;;5032921;28;20045;-73
2023/04/28 06:15:13;;;;;;;16.90;9.10;;;6.50;99.90;;;;;;5029328;28;20037;-72
2023/04/28 06:17:39;;;;;;;16.00;9.60;;;6.50;99.90;;;;;;5035887;28;20069;-72
2023/04/28 06:20:06;;;;;;;16.35;9.38;;;6.90;99.90;;;;;;5050290;28;20087;-73
2023/04/28 06:22:32;;;;;;;16.58;9.40;;;6.50;99.90;;;;;;5058413;28;20494;-72
2023/04/28 06:24:57;;;;;;;17.33;9.35;;;6.50;99.90;;;;;;5055994;28;20075;-75
2023/04/28 06:27:23;;;;;;;19.15;9.05;;;6.60;99.90;;;;;;5052380;28;20449;-72
2023/04/28 06:29:50;;;;;;;14.68;8.77;;;6.60;99.90;;;;;;5045651;28;20047;-75
2023/04/28 06:32:15;;;;;;;17.08;9.13;;;6.60;99.90;;;;;;5070524;28;20061;-73
2023/04/28 06:34:41;;;;;;;17.25;9.30;;;6.70;99.90;;;;;;5054489;28;20040;-73
2023/04/28 06:37:07;;;;;;;16.63;9.48;;;6.70;99.90;;;;;;5041863;28;20040;-73
2023/04/28 06:39:32;;;;;;;15.15;9.27;;;6.80;99.90;;;;;;5030483;28;20036;-73
2023/04/28 06:42:00;;;;;;;16.58;9.40;;;6.90;99.90;;;;;;5048211;28;20040;-73
2023/04/28 06:44:26;;;;;;;17.30;8.63;;;6.90;99.90;;;;;;5054431;28;20100;-73
2023/04/28 06:46:52;;;;;;;15.40;8.98;;;7.00;99.90;;;;;;5056016;28;20111;-73
2023/04/28 06:49:17;;;;;;;15.85;9.50;;;7.00;99.90;;;;;;5054393;28;20040;-73
2023/04/28 06:51:44;;;;;;;19.33;9.48;;;7.10;99.90;;;;;;5053576;28;20509;-73
2023/04/28 06:54:10;;;;;;;16.05;8.98;;;7.30;99.90;;;;;;5071796;28;20477;-73
2023/04/28 06:56:36;;;;;;;18.77;9.52;;;7.30;99.90;;;;;;5072156;28;20044;-73
2023/04/28 06:59:02;;;;;;;17.55;10.43;;;7.30;99.90;;;;;;5054081;28;20040;-73
2023/04/28 07:01:28;;;;;;;17.05;9.30;;;7.40;99.90;;;;;;5045803;28;20267;-72
2023/04/28 07:03:53;;;;;;;15.95;9.30;;;7.40;99.90;;;;;;5057952;28;20195;-72
2023/04/28 07:06:19;;;;;;;17.88;9.48;;;7.50;99.90;;;;;;5035854;28;20485;-73
2023/04/28 07:08:45;;;;;;;16.77;8.63;;;7.60;99.90;;;;;;5040241;28;20071;-72
2023/04/28 07:11:11;;;;;;;15.65;8.65;;;7.60;99.90;;;;;;5024566;28;20063;-72
2023/04/28 07:13:36;;;;;;;16.13;9.20;;;7.80;99.90;;;;;;5065072;28;20086;-72
2023/04/28 07:16:03;;;;;;;16.33;8.80;;;7.70;99.90;;;;;;5058580;28;20520;-72
2023/04/28 07:18:30;;;;;;;15.45;9.05;;;7.70;99.90;;;;;;5048809;28;20558;-74
2023/04/28 07:20:55;;;;;;;17.27;9.07;;;7.80;99.90;;;;;;5053635;28;20056;-74
2023/04/28 07:23:21;;;;;;;16.70;8.93;;;7.90;99.90;;;;;;5064829;28;20053;-73
2023/04/28 07:25:47;;;;;;;15.10;8.32;;;7.90;99.90;;;;;;5058149;28;20043;-73
2023/04/28 07:28:13;;;;;;;16.05;8.63;;;7.90;99.90;;;;;;5046146;28;20044;-74
2023/04/28 07:30:39;;;;;;;16.30;9.43;;;8.00;99.90;;;;;;5056076;28;20128;-74
2023/04/28 07:33:04;;;;;;;15.48;8.55;;;8.00;99.90;;;;;;5055105;28;20032;-74
2023/04/28 07:35:30;;;;;;;15.07;8.80;;;8.10;99.90;;;;;;5022226;28;20418;-74
2023/04/28 07:37:56;;;;;;;17.92;8.80;;;8.20;99.90;;;;;;5051913;28;20078;-73
2023/04/28 07:40:22;;;;;;;15.27;8.85;;;8.30;99.90;;;;;;5050812;28;20142;-74
2023/04/28 07:42:48;;;;;;;17.80;9.80;;;8.30;99.90;;;;;;5056448;28;20499;-74
2023/04/28 07:45:15;;;;;;;17.90;9.32;;;8.30;99.90;;;;;;5064024;28;20125;-74
2023/04/28 07:47:41;;;;;;;16.63;9.43;;;8.30;99.90;;;;;;5031048;28;20044;-74
2023/04/28 07:50:07;;;;;;;17.85;9.68;;;8.40;99.90;;;;;;5061273;28;20402;-74
2023/04/28 07:52:34;;;;;;;16.98;9.75;;;8.40;99.90;;;;;;5048079;28;20047;-73
2023/04/28 07:55:01;;;;;;;15.23;8.85;;;8.50;99.90;;;;;;5060436;28;20433;-74
2023/04/28 07:57:28;;;;;;;16.35;9.00;;;8.30;99.90;;;;;;5055104;28;20051;-73
2023/04/28 07:59:54;;;;;;;15.82;9.35;;;8.40;99.90;;;;;;5043062;28;20043;-73
2023/04/28 08:02:20;;;;;;;16.00;9.43;;;8.40;99.90;;;;;;5046339;28;20486;-74
2023/04/28 08:04:46;;;;;;;17.17;9.13;;;8.40;99.90;;;;;;5042120;28;20036;-74
2023/04/28 08:07:12;;;;;;;16.92;9.30;;;8.50;99.90;;;;;;5049191;28;20063;-73
2023/04/28 08:09:40;;;;;;;14.63;8.45;;;8.60;99.90;;;;;;5063861;28;20048;-73
2023/04/28 08:12:06;;;;;;;16.15;8.73;;;7.30;99.90;;;;;;5060201;28;20459;-73
2023/04/28 08:14:32;;;;;;;14.55;8.82;;;8.80;99.90;;;;;;5037806;28;20048;-74
2023/04/28 08:16:58;;;;;;;14.43;8.35;;;8.90;99.90;;;;;;5037644;28;20033;-73
2023/04/28 08:19:23;;;;;;;18.15;9.15;;;9.00;99.90;;;;;;5056299;28;20048;-73
2023/04/28 08:21:49;;;;;;;15.98;8.63;;;9.00;99.90;;;;;;5058295;28;20516;-73
2023/04/28 08:24:15;;;;;;;17.38;9.07;;;9.00;99.90;;;;;;5053370;28;20044;-73
2023/04/28 08:26:41;;;;;;;18.50;9.57;;;9.00;99.90;;;;;;5027737;28;20046;-74
2023/04/28 08:29:06;;;;;;;13.80;8.13;;;9.00;99.90;;;;;;5059316;28;20633;-74
2023/04/28 08:31:32;;;;;;;15.75;8.77;;;9.00;99.90;;;;;;5050094;28;20097;-74
2023/04/28 08:33:58;;;;;;;15.27;9.07;;;9.00;99.90;;;;;;5048676;28;20410;-74
2023/04/28 08:36:27;;;;;;;17.38;8.95;;;9.00;99.90;;;;;;5045461;28;20261;-74
2023/04/28 08:38:53;;;;;;;15.45;8.90;;;9.00;99.90;;;;;;5034923;28;20083;-74
2023/04/28 08:41:20;;;;;;;16.17;8.82;;;9.10;99.90;;;;;;5051639;28;20072;-74
2023/04/28 08:43:47;;;;;;;16.55;9.23;;;9.10;99.90;;;;;;5050455;28;20393;-74
2023/04/28 08:46:14;;;;;;;16.30;9.48;;;9.10;99.90;;;;;;5057634;28;20115;-74
2023/04/28 08:48:43;;;;;;;15.05;8.60;;;9.20;99.90;;;;;;5053238;28;20581;-73
2023/04/28 08:51:14;;;;;;;14.25;8.10;;;9.20;99.90;;;;;;5050243;28;20079;-74
2023/04/28 08:53:47;;;;;;;16.80;8.98;;;9.20;99.90;;;;;;5045875;28;20047;-73
2023/04/28 08:56:15;;;;;;;14.23;8.13;;;9.30;99.90;;;;;;5049475;28;20486;-74
2023/04/28 08:58:41;;;;;;;15.77;8.40;;;9.30;99.90;;;;;;5059129;28;20416;-74
2023/04/28 09:01:08;;;;;;;15.93;8.25;;;9.30;99.90;;;;;;5063031;28;20034;-74
2023/04/28 09:03:33;;;;;;;13.40;7.75;;;9.30;99.90;;;;;;5057792;28;20036;-74
2023/04/28 09:06:01;;;;;;;15.45;8.25;;;9.40;99.90;;;;;;5054837;28;20489;-74
2023/04/28 09:08:27;;;;;;;14.40;8.23;;;9.40;99.90;;;;;;5061578;28;20051;-74
2023/04/28 09:11:07;;;;;;;14.35;8.27;;;9.50;99.90;;;;;;5055622;28;20113;-74
2023/04/28 09:13:33;;;;;;;16.48;8.88;;;9.50;99.90;;;;;;5083330;28;20060;-74
2023/04/28 09:16:00;;;;;;;15.45;8.82;;;9.50;99.90;;;;;;5018248;28;20512;-74
2023/04/28 09:18:26;;;;;;;15.77;8.15;;;9.60;99.90;;;;;;5056588;28;20077;-74
2023/04/28 09:21:01;;;;;;;15.20;8.63;;;9.70;99.90;;;;;;5053276;28;20465;-73
2023/04/28 09:23:26;;;;;;;15.85;8.90;;;9.80;99.90;;;;;;5044366;28;20036;-73
2023/04/28 09:26:06;;;;;;;15.88;8.43;;;9.90;99.90;;;;;;5056372;28;20572;-73
2023/04/28 09:28:34;;;;;;;17.05;8.63;;;10.00;99.90;;;;;;5057219;28;20053;-73
2023/04/28 09:31:01;;;;;;;15.50;8.23;;;10.20;99.90;;;;;;5061551;28;20163;-74
2023/04/28 09:33:26;;;;;;;15.93;8.50;;;10.30;99.90;;;;;;5053438;28;20044;-74
2023/04/28 09:35:53;;;;;;;15.65;9.00;;;10.40;99.90;;;;;;5048962;28;20047;-74
2023/04/28 09:38:20;;;;;;;14.50;8.35;;;10.50;99.90;;;;;;5046649;28;20044;-73
2023/04/28 09:40:58;;;;;;;14.07;7.80;;;10.60;99.90;;;;;;5057718;28;20036;-73
2023/04/28 09:43:27;;;;;;;13.80;8.55;;;9.30;99.90;;;;;;5047015;28;20036;-73
2023/04/28 09:45:58;;;;;;;15.45;8.48;;;10.80;99.90;;;;;;5051678;28;20071;-73
2023/04/28 09:48:32;;;;;;;16.25;8.35;;;10.90;99.90;;;;;;5045668;28;20036;-74
2023/04/28 09:50:59;;;;;;;13.68;7.85;;;11.10;99.90;;;;;;5053236;28;20040;-75
2023/04/28 09:53:26;;;;;;;15.73;8.15;;;11.20;99.90;;;;;;5043897;28;20032;-73
2023/04/28 09:55:54;;;;;;;15.35;8.60;;;11.40;99.90;;;;;;5062935;28;20052;-73
2023/04/28 09:58:20;;;;;;;16.88;8.55;;;11.60;99.90;;;;;;5056945;28;20049;-73
2023/04/28 10:00:53;;;;;;;16.50;8.18;;;11.70;99.90;;;;;;5056889;28;20386;-73
2023/04/28 10:03:24;;;;;;;14.38;8.02;;;11.80;99.90;;;;;;5078040;28;20032;-74
2023/04/28 10:05:52;;;;;;;18.27;8.48;;;12.00;99.90;;;;;;5045658;28;20438;-73
2023/04/28 10:08:19;;;;;;;14.77;8.65;;;12.20;99.90;;;;;;5038786;28;20048;-74
2023/04/28 10:10:47;;;;;;;14.68;7.82;;;12.50;99.90;;;;;;5043812;28;20532;-74
2023/04/28 10:13:18;;;;;;;15.15;8.15;;;12.70;99.90;;;;;;5051066;28;20094;-73
2023/04/28 10:15:47;;;;;;;14.40;7.90;;;12.90;99.90;;;;;;5053246;28;20047;-74
2023/04/28 10:18:14;;;;;;;17.00;8.45;;;13.00;99.90;;;;;;5066392;28;20032;-74
2023/04/28 10:20:45;;;;;;;14.20;8.60;;;13.00;99.90;;;;;;5045819;28;20048;-74
2023/04/28 10:23:45;;;;;;;12.50;7.43;;;13.00;99.90;;;;;;5053252;28;20090;-74
2023/04/28 10:26:13;;;;;;;14.07;7.93;;;12.90;99.90;;;;;;5066214;28;20040;-73
2023/04/28 10:28:47;;;;;;;13.13;7.85;;;12.90;99.90;;;;;;5051886;28;20044;-73
2023/04/28 10:31:20;;;;;;;15.38;8.55;;;12.90;99.90;;;;;;5052794;28;20084;-73
2023/04/28 10:33:47;;;;;;;13.93;7.85;;;12.90;99.90;;;;;;5052470;28;20082;-74
2023/04/28 10:36:53;;;;;;;15.13;8.07;;;12.90;99.90;;;;;;5055545;28;20037;-73
2023/04/28 10:39:19;;;;;;;13.60;7.88;;;13.00;99.90;;;;;;5060356;28;20113;-74
2023/04/28 10:41:47;;;;;;;14.98;8.10;;;13.00;99.90;;;;;;5031557;28;20036;-74
2023/04/28 10:44:31;;;;;;;13.95;7.97;;;13.10;99.90;;;;;;5042182;28;20051;-73
2023/04/28 10:47:08;;;;;;;15.43;8.95;;;13.10;99.90;;;;;;5054917;28;20382;-73
2023/04/28 10:50:00;;;;;;;14.63;8.27;;;13.10;99.90;;;;;;5049439;28;20036;-73
2023/04/28 10:52:31;;;;;;;15.02;8.02;;;13.20;99.90;;;;;;5038601;28;20243;-73
2023/04/28 10:55:27;;;;;;;14.98;8.55;;;13.10;99.90;;;;;;5039096;28;20070;-73
2023/04/28 10:58:15;;;;;;;15.85;8.35;;;13.10;99.90;;;;;;5048264;28;20036;-73
2023/04/28 11:00:41;;;;;;;13.75;8.55;;;13.10;99.90;;;;;;5073885;28;20060;-73
2023/04/28 11:03:07;;;;;;;15.07;8.88;;;13.00;99.90;;;;;;5034154;28;20090;-73
2023/04/28 11:05:34;;;;;;;15.98;9.05;;;12.90;99.90;;;;;;5061738;28;20036;-73
2023/04/28 11:08:25;;;;;;;15.05;8.52;;;12.80;99.90;;;;;;5060947;28;20043;-73
2023/04/28 11:11:09;;;;;;;14.93;8.57;;;12.70;99.90;;;;;;5055347;28;20458;-73
2023/04/28 11:13:34;;;;;;;15.10;8.90;;;12.60;99.90;;;;;;5060483;28;20040;-73
2023/04/28 11:16:04;;;;;;;14.95;9.15;;;12.60;99.90;;;;;;5028488;28;20501;-73
2023/04/28 11:18:51;;;;;;;14.63;8.88;;;12.60;99.90;;;;;;5050059;28;20048;-72
2023/04/28 11:21:18;;;;;;;14.30;8.82;;;12.60;99.90;;;;;;5051496;28;20067;-73
2023/04/28 11:23:45;;;;;;;14.48;8.90;;;12.70;99.90;;;;;;5058732;28;20131;-73
2023/04/28 11:26:10;;;;;;;16.73;9.75;;;12.60;99.90;;;;;;5042382;28;20036;-73
2023/04/28 11:28:52;;;;;;;17.00;9.73;;;12.50;99.90;;;;;;5057285;28;20408;-73
2023/04/28 11:31:21;;;;;;;17.65;9.18;;;12.50;99.90;;;;;;5035471;28;20119;-73
2023/04/28 11:34:15;;;;;;;15.02;9.70;;;12.40;99.90;;;;;;5056758;28;20048;-73
2023/04/28 11:36:41;;;;;;;19.00;10.45;;;12.40;99.90;;;;;;5056703;28;20053;-73
2023/04/28 11:39:09;;;;;;;15.57;9.70;;;12.40;99.90;;;;;;5050121;28;20470;-73
2023/04/28 11:41:36;;;;;;;15.65;9.65;;;12.40;99.90;;;;;;5035108;28;21029;-73
2023/04/28 11:44:19;;;;;;;16.23;10.40;;;12.30;99.90;;;;;;4712246;28;9999719;-73
2023/04/28 11:46:59;;;;;;;17.17;9.52;;;12.40;99.90;;;;;;5051141;28;20040;-73
2023/04/28 11:49:32;;;;;;;16.48;9.50;;;12.40;99.90;;;;;;5042184;28;20072;-73
2023/04/28 11:52:08;;;;;;;16.77;10.07;;;12.40;99.90;;;;;;5059269;28;20047;-73
2023/04/28 11:54:35;;;;;;;15.52;8.93;;;12.40;99.90;;;;;;5058025;28;20051;-73
2023/04/28 11:57:03;;;;;;;15.10;9.30;;;12.50;99.90;;;;;;5064643;28;20126;-73
2023/04/28 11:59:38;;;;;;;18.13;9.60;;;12.60;99.90;;;;;;5062753;28;20529;-73
2023/04/28 12:02:05;;;;;;;15.13;9.27;;;12.70;99.90;;;;;;5049915;28;20043;-73
2023/04/28 12:04:36;;;;;;;15.07;9.80;;;12.80;99.90;;;;;;5028927;28;20040;-73
2023/04/28 12:07:12;;;;;;;16.02;9.95;;;12.80;99.90;;;;;;5059829;28;20055;-74
2023/04/28 12:09:40;;;;;;;16.00;9.82;;;12.80;99.90;;;;;;5056473;28;20166;-73
2023/04/28 12:12:29;;;;;;;17.08;9.68;;;12.80;99.90;;;;;;5058286;28;20500;-73
2023/04/28 12:15:06;;;;;;;13.55;9.02;;;12.80;99.90;;;;;;5062595;28;20047;-73
2023/04/28 12:17:37;;;;;;;13.85;8.88;;;12.90;99.90;;;;;;5054788;28;20040;-73
2023/04/28 12:20:05;;;;;;;17.00;9.93;;;13.00;99.90;;;;;;5051402;28;20044;-73
2023/04/28 12:22:49;;;;;;;14.70;8.63;;;13.10;99.90;;;;;;5045438;28;20056;-73
2023/04/28 12:25:17;;;;;;;15.35;9.50;;;13.10;99.90;;;;;;5066683;28;20108;-74
2023/04/28 12:28:02;;;;;;;14.25;9.18;;;13.00;99.90;;;;;;5069456;28;20054;-73
2023/04/28 12:30:29;;;;;;;18.33;9.50;;;13.10;99.90;;;;;;5061327;28;20078;-73
2023/04/28 12:32:56;;;;;;;17.95;9.45;;;13.00;99.90;;;;;;5057299;28;20048;-73
2023/04/28 12:35:23;;;;;;;15.15;9.23;;;13.10;99.90;;;;;;5069412;28;20052;-73
2023/04/28 12:37:49;;;;;;;14.02;9.13;;;13.10;99.90;;;;;;5073064;28;20051;-74
2023/04/28 12:40:15;;;;;;;15.15;8.77;;;13.00;99.90;;;;;;5019732;28;20032;-74
2023/04/28 12:42:40;;;;;;;16.25;9.20;;;13.00;99.90;;;;;;5046265;28;20044;-73
2023/04/28 12:45:08;;;;;;;13.88;8.77;;;13.00;99.90;;;;;;5072083;28;20066;-73